createdAt,value
2022-12-23T00:01:46.179Z,99599.82
2022-12-23T00:04:18.817Z,99589.45
2022-12-23T00:06:51.652Z,99591.32
2022-12-23T00:09:28.340Z,99589.64
2022-12-23T00:12:18.301Z,99581.03
2022-12-23T00:15:09.127Z,99576.96
2022-12-23T00:17:45.457Z,99571.71
2022-12-23T00:20:18.821Z,99567.91
2022-12-23T00:23:06.432Z,99567.88
2022-12-23T00:25:45.001Z,99558.43
2022-12-23T00:28:20.607Z,99582.77
2022-12-23T00:30:55.071Z,99586.84
2022-12-23T00:33:29.456Z,99568.16
2022-12-23T00:36:02.099Z,99592.80
2022-12-23T00:38:51.983Z,99597.46
2022-12-23T00:41:42.278Z,99598.16
2022-12-23T00:44:14.848Z,99596.16
2022-12-23T00:46:47.280Z,99595.25
2022-12-23T00:49:38.587Z,99595.70
2022-12-23T00:52:13.047Z,99589.56
2022-12-23T00:54:45.464Z,99589.55
2022-12-23T00:57:17.921Z,99582.16
2022-12-23T00:59:50.324Z,99582.69
2022-12-23T01:02:40.142Z,99574.45
2022-12-23T01:08:23.586Z,99572.36
2022-12-23T01:10:56.037Z,99573.72
2022-12-23T01:13:28.443Z,99571.61
2022-12-23T01:16:04.582Z,99567.48
2022-12-23T01:18:38.767Z,99566.17
2022-12-23T01:23:09.783Z,99559.95
2022-12-23T01:25:42.544Z,99552.55
2022-12-23T01:28:15.534Z,99549.29
2022-12-23T01:30:47.846Z,99557.93
2022-12-23T01:33:20.569Z,99552.41
2022-12-23T01:35:53.258Z,99549.30
2022-12-23T01:38:26.325Z,99547.93
2022-12-23T01:40:59.014Z,99549.30
2022-12-23T01:46:28.173Z,99552.69
2022-12-23T01:49:00.664Z,99559.20
2022-12-23T01:51:33.660Z,99557.66
2022-12-23T01:54:06.666Z,99561.40
2022-12-23T01:56:41.519Z,99558.84
2022-12-23T01:59:36.991Z,99536.49
2022-12-23T02:02:25.294Z,99549.92
2022-12-23T02:04:58.520Z,99552.31
2022-12-23T02:07:48.952Z,99557.16
2022-12-23T02:10:22.284Z,99555.38
2022-12-23T02:13:02.211Z,99543.07
2022-12-23T02:15:57.272Z,99556.00
2022-12-23T02:18:48.639Z,99561.67
2022-12-23T02:21:46.039Z,99547.39
2022-12-23T02:24:45.676Z,99560.29
2022-12-23T02:27:24.671Z,99559.00
2022-12-23T02:30:36.959Z,99551.34
2022-12-23T02:33:21.053Z,99547.23
2022-12-23T02:36:05.399Z,99544.38
2022-12-23T02:38:47.136Z,99547.46
2022-12-23T02:41:29.237Z,99533.34
2022-12-23T02:44:10.501Z,99530.85
2022-12-23T02:46:48.325Z,99546.63
2022-12-23T02:49:26.527Z,99544.77
2022-12-23T02:52:03.028Z,99545.20
2022-12-23T02:54:40.221Z,99530.29
2022-12-23T02:57:18.150Z,99542.16
2022-12-23T02:59:53.853Z,99546.14
2022-12-23T03:02:26.849Z,99550.85
2022-12-23T03:05:01.165Z,99548.25
2022-12-23T03:07:39.911Z,99540.79
2022-12-23T03:10:20.386Z,99516.00
2022-12-23T03:13:02.754Z,99532.77
2022-12-23T03:15:48.252Z,99531.19
2022-12-23T03:18:28.984Z,99531.30
2022-12-23T03:21:08.269Z,99536.04
2022-12-23T03:23:50.386Z,99530.58
2022-12-23T03:26:32.194Z,99529.67
2022-12-23T03:29:13.647Z,99528.13
2022-12-23T03:31:48.705Z,99528.65
2022-12-23T03:34:26.027Z,99529.21
2022-12-23T03:37:02.839Z,99529.58
2022-12-23T03:39:40.456Z,99524.77
2022-12-23T03:42:18.763Z,99526.59
2022-12-23T03:45:28.019Z,99525.89
2022-12-23T03:47:51.776Z,99515.80
2022-12-23T03:50:26.639Z,99509.77
2022-12-23T03:52:59.874Z,99510.73
2022-12-23T03:55:37.099Z,99514.68
2022-12-23T03:58:15.722Z,99523.87
2022-12-23T04:00:57.729Z,99518.48
2022-12-23T04:03:38.763Z,99517.20
2022-12-23T04:06:17.116Z,99521.20
2022-12-23T04:08:52.564Z,99519.23
2022-12-23T04:11:25.161Z,99518.11
2022-12-23T04:13:57.609Z,99516.35
2022-12-23T04:16:30.859Z,99518.60
2022-12-23T04:19:03.249Z,99517.74
2022-12-23T04:21:35.698Z,99511.13
2022-12-23T04:24:09.243Z,99512.09
2022-12-23T04:26:41.696Z,99506.73
2022-12-23T04:29:14.139Z,99504.60
2022-12-23T04:31:46.667Z,99505.17
2022-12-23T04:34:19.472Z,99507.19
2022-12-23T04:36:51.950Z,99505.84
2022-12-23T04:39:24.582Z,99506.61
2022-12-23T04:41:57.224Z,99492.97
2022-12-23T04:44:29.682Z,99491.48
2022-12-23T04:47:02.593Z,99491.79
2022-12-23T04:49:35.337Z,99489.89
2022-12-23T04:52:08.638Z,99489.80
2022-12-23T04:54:46.014Z,99485.59
2022-12-23T04:57:18.808Z,99485.65
2022-12-23T04:59:51.275Z,99482.61
2022-12-23T05:02:25.953Z,99475.90
2022-12-23T05:04:58.693Z,99471.30
2022-12-23T05:07:31.362Z,99467.44
2022-12-23T05:10:04.099Z,99465.72
2022-12-23T05:12:36.604Z,99464.83
2022-12-23T05:15:11.137Z,99461.88
2022-12-23T05:17:43.837Z,99461.06
2022-12-23T05:20:16.562Z,99461.14
2022-12-23T05:22:49.009Z,99462.90
2022-12-23T05:25:21.490Z,99458.91
2022-12-23T05:27:56.944Z,99441.27
2022-12-23T05:30:29.654Z,99456.58
2022-12-23T05:33:02.483Z,99454.40
2022-12-23T05:35:35.183Z,99440.31
2022-12-23T05:38:07.924Z,99452.36
2022-12-23T05:40:40.383Z,99455.42
2022-12-23T05:43:13.082Z,99452.85
2022-12-23T05:45:45.889Z,99455.33
2022-12-23T05:48:18.543Z,99459.75
2022-12-23T05:50:53.983Z,99457.65
2022-12-23T05:53:34.080Z,99455.05
2022-12-23T05:56:09.165Z,99451.17
2022-12-23T05:58:41.635Z,99453.38
2022-12-23T06:01:14.021Z,99445.86
2022-12-23T06:03:46.832Z,99432.95
2022-12-23T06:06:19.700Z,99434.86
2022-12-23T06:08:55.871Z,99436.52
2022-12-23T06:11:31.767Z,99421.18
2022-12-23T06:14:04.217Z,99433.04
2022-12-23T06:16:37.091Z,99415.76
2022-12-23T06:19:09.746Z,99430.77
2022-12-23T06:21:42.135Z,99429.63
2022-12-23T06:24:15.072Z,99427.42
2022-12-23T06:26:49.756Z,99429.59
2022-12-23T06:29:26.516Z,99411.27
2022-12-23T06:31:59.868Z,99431.30
2022-12-23T06:34:32.709Z,99413.25
2022-12-23T06:37:06.277Z,99429.77
2022-12-23T06:39:38.761Z,99427.70
2022-12-23T06:42:11.309Z,99431.64
2022-12-23T06:44:43.680Z,99434.39
2022-12-23T06:47:16.467Z,99432.08
2022-12-23T06:49:49.241Z,99436.60
2022-12-23T06:52:23.166Z,99438.24
2022-12-23T06:54:56.104Z,99437.42
2022-12-23T06:57:29.785Z,99436.08
2022-12-23T07:00:02.200Z,99434.41
2022-12-23T07:02:35.043Z,99425.59
2022-12-23T07:05:08.241Z,99416.82
2022-12-23T07:07:40.798Z,99414.71
2022-12-23T07:10:13.559Z,99413.07
2022-12-23T07:12:50.723Z,99412.98
2022-12-23T07:15:23.411Z,99410.59
2022-12-23T07:17:57.212Z,99415.55
2022-12-23T07:20:29.669Z,99417.36
2022-12-23T07:23:02.810Z,99416.02
2022-12-23T07:25:35.342Z,99418.89
2022-12-23T07:28:08.052Z,99413.23
2022-12-23T07:30:40.578Z,99407.86
2022-12-23T07:33:13.879Z,99405.73
2022-12-23T07:35:46.776Z,99405.02
2022-12-23T07:38:19.449Z,99408.02
2022-12-23T07:40:52.852Z,99399.27
2022-12-23T07:43:25.603Z,99394.44
2022-12-23T07:46:00.833Z,99399.00
2022-12-23T07:48:33.954Z,99397.27
2022-12-23T07:51:07.078Z,99394.54
2022-12-23T07:53:39.486Z,99393.91
2022-12-23T07:56:12.291Z,99394.92
2022-12-23T07:58:44.880Z,99387.00
2022-12-23T08:01:17.619Z,99386.37
2022-12-23T08:03:50.607Z,99385.05
2022-12-23T08:06:23.205Z,99383.08
2022-12-23T08:08:55.845Z,99389.50
2022-12-23T08:11:28.395Z,99385.37
2022-12-23T08:14:00.859Z,99381.54
2022-12-23T08:16:39.565Z,99382.73
2022-12-23T08:19:16.867Z,99376.27
2022-12-23T08:21:52.028Z,99376.10
2022-12-23T08:24:28.887Z,99376.66
2022-12-23T08:27:12.161Z,99375.80
2022-12-23T08:29:53.135Z,99374.52
2022-12-23T08:32:32.067Z,99375.66
2022-12-23T08:35:09.333Z,99372.02
2022-12-23T08:37:48.952Z,99374.14
2022-12-23T08:40:32.412Z,99374.80
2022-12-23T08:43:13.349Z,99372.65
2022-12-23T08:45:51.151Z,99374.08
2022-12-23T08:48:29.406Z,99375.34
2022-12-23T08:51:07.925Z,99361.27
2022-12-23T08:53:45.163Z,99376.88
2022-12-23T08:56:23.424Z,99374.72
2022-12-23T08:59:00.672Z,99375.97
2022-12-23T09:01:34.794Z,99368.57
2022-12-23T09:06:09.698Z,99365.10
2022-12-23T09:08:41.193Z,99364.14
2022-12-23T09:11:15.465Z,99366.13
2022-12-23T09:13:48.551Z,99363.08
2022-12-23T09:16:21.496Z,99359.14
2022-12-23T09:18:54.072Z,99359.71
2022-12-23T09:21:26.719Z,99357.11
2022-12-23T09:23:59.223Z,99356.48
2022-12-23T09:26:32.724Z,99351.36
2022-12-23T09:29:05.476Z,99352.20
2022-12-23T09:31:38.263Z,99350.88
2022-12-23T09:34:13.140Z,99347.73
2022-12-23T09:36:43.971Z,99346.83
2022-12-23T09:39:16.882Z,99349.81
2022-12-23T09:42:04.090Z,99333.67
2022-12-23T09:44:49.179Z,99350.52
2022-12-23T09:47:21.277Z,99349.15
2022-12-23T09:49:59.281Z,99350.92
2022-12-23T09:52:41.813Z,99349.13
2022-12-23T09:55:16.375Z,99355.60
2022-12-23T09:57:56.811Z,99359.77
2022-12-23T10:00:36.469Z,99361.42
2022-12-23T10:03:22.035Z,99364.37
2022-12-23T10:06:04.132Z,99361.45
2022-12-23T10:08:38.977Z,99362.86
2022-12-23T10:11:17.409Z,99363.13
2022-12-23T10:13:53.622Z,99361.64
2022-12-23T10:16:29.525Z,99359.34
2022-12-23T10:19:05.259Z,99361.36
2022-12-23T10:21:47.165Z,99367.95
2022-12-23T10:24:27.020Z,99364.40
2022-12-23T10:27:02.329Z,99364.83
2022-12-23T10:29:35.771Z,99363.83
2022-12-23T10:32:22.875Z,99369.31
2022-12-23T10:35:01.154Z,99369.95
2022-12-23T10:37:39.314Z,99369.23
2022-12-23T10:40:22.680Z,99367.84
2022-12-23T10:43:05.745Z,99382.65
2022-12-23T10:45:50.040Z,99385.30
2022-12-23T10:48:35.180Z,99386.38
2022-12-23T10:51:14.322Z,99391.04
2022-12-23T10:53:52.550Z,99390.44
2022-12-23T10:56:25.386Z,99390.48
2022-12-23T10:59:00.592Z,99395.48
2022-12-23T11:01:34.019Z,99396.51
2022-12-23T11:04:12.896Z,99395.80
2022-12-23T11:07:10.835Z,99399.40
2022-12-23T11:09:47.046Z,99395.63
2022-12-23T11:12:26.049Z,99394.95
2022-12-23T11:15:00.318Z,99392.09
2022-12-23T11:17:35.280Z,99389.73
2022-12-23T11:20:16.547Z,99390.20
2022-12-23T11:22:54.419Z,99394.12
2022-12-23T11:25:34.089Z,99396.45
2022-12-23T11:28:13.266Z,99396.34
2022-12-23T11:30:57.392Z,99403.25
2022-12-23T11:33:31.703Z,99407.69
2022-12-23T11:36:07.868Z,99407.06
2022-12-23T11:38:51.532Z,99405.60
2022-12-23T11:41:27.658Z,99407.42
2022-12-23T11:44:04.939Z,99408.64
2022-12-23T11:46:38.298Z,99409.53
2022-12-23T11:49:21.265Z,99409.23
2022-12-23T11:52:03.806Z,99417.10
2022-12-23T11:54:36.853Z,99416.27
2022-12-23T11:57:16.898Z,99420.33
2022-12-23T11:59:50.945Z,99418.84
2022-12-23T12:02:29.364Z,99419.19
2022-12-23T12:05:04.424Z,99425.17
2022-12-23T12:07:37.593Z,99429.20
2022-12-23T12:10:18.637Z,99431.98
2022-12-23T12:12:55.221Z,99439.11
2022-12-23T12:15:38.378Z,99427.73
2022-12-23T12:18:16.247Z,99445.55
2022-12-23T12:20:53.689Z,99436.33
2022-12-23T12:23:32.403Z,99451.23
2022-12-23T12:26:07.667Z,99458.63
2022-12-23T12:28:44.289Z,99466.88
2022-12-23T12:31:25.610Z,99471.11
2022-12-23T12:34:05.183Z,99475.63
2022-12-23T12:36:45.343Z,99474.73
2022-12-23T12:39:22.292Z,99460.30
2022-12-23T12:42:05.486Z,99473.64
2022-12-23T12:44:47.019Z,99468.09
2022-12-23T12:47:52.824Z,99463.48
2022-12-23T12:50:23.617Z,99449.02
2022-12-23T12:53:01.504Z,99461.75
2022-12-23T12:55:38.657Z,99463.52
2022-12-23T12:58:20.120Z,99472.70
2022-12-23T13:01:04.192Z,99484.70
2022-12-23T13:03:55.702Z,99481.89
2022-12-23T13:06:40.708Z,99493.05
2022-12-23T13:09:25.864Z,99500.73
2022-12-23T13:12:15.875Z,99500.51
2022-12-23T13:14:59.365Z,99502.47
2022-12-23T13:17:38.668Z,99505.76
2022-12-23T13:20:21.813Z,99499.45
2022-12-23T13:23:20.887Z,99510.88
2022-12-23T13:26:00.130Z,99504.34
2022-12-23T13:28:41.814Z,99503.53
2022-12-23T13:31:34.063Z,99493.51
2022-12-23T13:34:22.613Z,99496.55
2022-12-23T13:37:01.713Z,99498.39
2022-12-23T13:39:47.267Z,99499.83
2022-12-23T13:42:31.402Z,99502.33
2022-12-23T13:45:05.059Z,99498.55
2022-12-23T13:47:47.680Z,99504.00
2022-12-23T13:50:25.566Z,99510.71
2022-12-23T13:53:11.832Z,99511.73
2022-12-23T13:56:04.366Z,99516.11
2022-12-23T13:58:40.513Z,99523.88
2022-12-23T14:01:37.266Z,99528.15
2022-12-23T14:04:37.645Z,99539.16
2022-12-23T14:07:21.739Z,99542.48
2022-12-23T14:09:59.176Z,99554.17
2022-12-23T14:12:36.861Z,99562.15
2022-12-23T14:15:27.715Z,99542.70
2022-12-23T14:18:28.320Z,99564.25
2022-12-23T14:21:12.728Z,99575.82
2022-12-23T14:24:04.502Z,99574.00
2022-12-23T14:26:54.849Z,99568.73
2022-12-23T14:29:51.416Z,99559.25
2022-12-23T14:32:27.970Z,99560.83
2022-12-23T14:35:26.297Z,99563.61
2022-12-23T14:38:32.036Z,99562.73
2022-12-23T14:41:24.252Z,99565.33
2022-12-23T14:43:59.599Z,99566.41
2022-12-23T14:46:58.340Z,99572.83
2022-12-23T14:49:44.065Z,99580.76
2022-12-23T14:52:58.232Z,99582.77
2022-12-23T14:56:09.726Z,99575.65
2022-12-23T14:59:02.101Z,99595.48
2022-12-23T15:01:38.287Z,99576.53
2022-12-23T15:04:20.410Z,99578.35
2022-12-23T15:06:56.578Z,99578.91
2022-12-23T15:09:31.756Z,99584.88
2022-12-23T15:12:07.804Z,99586.34
2022-12-23T15:14:45.659Z,99581.42
2022-12-23T15:17:27.864Z,99586.35
2022-12-23T15:20:15.957Z,99592.45
2022-12-23T15:22:49.557Z,99590.19
2022-12-23T15:25:27.489Z,99581.36
2022-12-23T15:28:03.311Z,99592.05
2022-12-23T15:30:45.910Z,99602.58
2022-12-23T15:34:00.509Z,99601.19
2022-12-23T15:36:16.340Z,99592.16
2022-12-23T15:38:49.717Z,99589.95
2022-12-23T15:41:22.710Z,99587.95
2022-12-23T15:44:01.926Z,99570.64
2022-12-23T15:46:40.147Z,99589.91
2022-12-23T15:49:14.248Z,99587.79
2022-12-23T15:52:07.217Z,99584.56
2022-12-23T15:54:45.997Z,99580.77
2022-12-23T15:57:21.900Z,99578.21
2022-12-23T15:59:54.982Z,99582.20
2022-12-23T16:02:59.670Z,99585.34
2022-12-23T16:05:31.051Z,99592.65
2022-12-23T16:08:29.634Z,99598.18
2022-12-23T16:11:14.917Z,99576.94
2022-12-23T16:14:02.166Z,99590.60
2022-12-23T16:16:41.653Z,99596.61
2022-12-23T16:19:46.833Z,99579.45
2022-12-23T16:22:29.298Z,99590.98
2022-12-23T16:25:10.088Z,99580.30
2022-12-23T16:27:44.888Z,99579.55
2022-12-23T16:30:21.231Z,99581.86
2022-12-23T16:32:56.316Z,99582.98
2022-12-23T16:35:38.827Z,99583.95
2022-12-23T16:38:27.646Z,99584.82
2022-12-23T16:41:00.105Z,99584.64
2022-12-23T16:43:33.775Z,99592.89
2022-12-23T16:46:08.380Z,99593.18
2022-12-23T16:48:40.911Z,99588.18
2022-12-23T16:51:17.059Z,99588.69
2022-12-23T16:53:51.082Z,99589.56
2022-12-23T16:56:25.586Z,99592.74
2022-12-23T16:58:58.016Z,99593.53
2022-12-23T17:01:33.318Z,99596.77
2022-12-23T17:04:06.040Z,99581.25
2022-12-23T17:06:39.737Z,99606.40
2022-12-23T17:09:13.806Z,99592.46
2022-12-23T17:11:48.186Z,99595.30
2022-12-23T17:14:20.732Z,99608.04
2022-12-23T17:16:53.746Z,99608.27
2022-12-23T17:19:29.056Z,99611.34
2022-12-23T17:22:04.474Z,99614.17
2022-12-23T17:24:35.800Z,99613.14
2022-12-23T17:27:14.926Z,99618.44
2022-12-23T17:29:47.497Z,99616.48
2022-12-23T17:32:21.607Z,99618.96
2022-12-23T17:34:54.061Z,99615.88
2022-12-23T17:37:26.793Z,99613.54
2022-12-23T17:39:59.356Z,99618.61
2022-12-23T17:42:31.983Z,99615.29
2022-12-23T17:45:04.862Z,99615.36
2022-12-23T17:47:37.460Z,99621.20
2022-12-23T17:50:12.937Z,99622.02
2022-12-23T17:52:45.629Z,99617.38
2022-12-23T17:55:22.262Z,99615.52
2022-12-23T17:57:54.905Z,99615.61
2022-12-23T18:00:34.132Z,99612.13
2022-12-23T18:03:09.492Z,99608.27
2022-12-23T18:05:42.058Z,99608.05
2022-12-23T18:08:14.853Z,99604.52
2022-12-23T18:10:47.931Z,99607.70
2022-12-23T18:13:22.475Z,99607.29
2022-12-23T18:15:54.932Z,99606.83
2022-12-23T18:18:36.809Z,99597.93
2022-12-23T18:21:20.118Z,99574.20
2022-12-23T18:23:53.373Z,99571.05
2022-12-23T18:26:27.542Z,99569.52
2022-12-23T18:29:01.597Z,99584.09
2022-12-23T18:31:34.200Z,99583.15
2022-12-23T18:34:07.729Z,99589.21
2022-12-23T18:36:40.585Z,99592.05
2022-12-23T18:39:13.284Z,99590.64
2022-12-23T18:41:45.745Z,99583.27
2022-12-23T18:44:21.166Z,99558.52
2022-12-23T18:46:53.835Z,99572.27
2022-12-23T18:49:26.404Z,99574.02
2022-12-23T18:51:58.933Z,99572.98
2022-12-23T18:54:31.642Z,99576.52
2022-12-23T18:57:05.011Z,99571.86
2022-12-23T18:59:39.060Z,99573.83
2022-12-23T19:02:15.408Z,99571.63
2022-12-23T19:04:48.047Z,99571.87
2022-12-23T19:07:20.782Z,99567.10
2022-12-23T19:09:54.194Z,99567.05
2022-12-23T19:12:27.304Z,99566.33
2022-12-23T19:14:59.749Z,99560.52
2022-12-23T19:17:32.252Z,99554.65
2022-12-23T19:20:04.891Z,99553.71
2022-12-23T19:22:37.497Z,99560.69
2022-12-23T19:25:11.687Z,99563.30
2022-12-23T19:27:44.951Z,99564.48
2022-12-23T19:30:20.071Z,99568.77
2022-12-23T19:32:54.085Z,99563.84
2022-12-23T19:35:26.936Z,99559.14
2022-12-23T19:37:59.495Z,99559.05
2022-12-23T19:40:33.284Z,99559.27
2022-12-23T19:43:06.226Z,99555.88
2022-12-23T19:45:38.709Z,99563.77
2022-12-23T19:48:11.183Z,99564.25
2022-12-23T19:50:44.076Z,99569.23
2022-12-23T19:53:17.003Z,99572.52
2022-12-23T19:55:59.174Z,99571.02
2022-12-23T19:58:35.609Z,99552.47
2022-12-23T20:01:13.702Z,99564.15
2022-12-23T20:03:47.236Z,99559.73
2022-12-23T20:06:21.778Z,99563.23
2022-12-23T20:09:00.051Z,99572.39
2022-12-23T20:11:36.613Z,99577.36
2022-12-23T20:14:10.098Z,99586.80
2022-12-23T20:16:43.535Z,99570.37
2022-12-23T20:19:16.155Z,99580.14
2022-12-23T20:21:48.521Z,99583.65
2022-12-23T20:24:22.259Z,99592.29
2022-12-23T20:26:54.983Z,99594.05
2022-12-23T20:29:28.160Z,99591.35
2022-12-23T20:32:00.656Z,99578.15
2022-12-23T20:34:39.139Z,99587.70
2022-12-23T20:37:13.374Z,99578.11
2022-12-23T20:39:45.881Z,99592.58
2022-12-23T20:42:18.599Z,99593.05
2022-12-23T20:44:51.891Z,99595.05
2022-12-23T20:47:24.270Z,99588.40
2022-12-23T20:49:56.833Z,99572.45
2022-12-23T20:52:29.640Z,99588.61
2022-12-23T20:55:02.886Z,99585.66
2022-12-23T20:57:36.014Z,99584.02
2022-12-23T21:00:10.680Z,99580.74
2022-12-23T21:02:43.263Z,99580.91
2022-12-23T21:05:16.038Z,99578.94
2022-12-23T21:07:48.700Z,99581.90
2022-12-23T21:10:21.343Z,99584.91
2022-12-23T21:12:54.470Z,99555.71
2022-12-23T21:15:26.872Z,99581.71
2022-12-23T21:17:59.318Z,99585.39
2022-12-23T21:20:32.086Z,99584.52
2022-12-23T21:23:04.501Z,99577.23
2022-12-23T21:25:37.014Z,99576.36
2022-12-23T21:28:09.339Z,99569.71
2022-12-23T21:30:41.847Z,99567.52
2022-12-23T21:33:15.436Z,99564.64
2022-12-23T21:35:48.593Z,99563.54
2022-12-23T21:38:21.741Z,99565.77
2022-12-23T21:40:59.776Z,99558.26
2022-12-23T21:43:32.681Z,99556.59
2022-12-23T21:46:07.009Z,99558.48
2022-12-23T21:48:40.373Z,99555.58
2022-12-23T21:51:15.811Z,99554.26
2022-12-23T21:53:50.477Z,99552.81
2022-12-23T21:56:25.177Z,99554.15
2022-12-23T21:59:00.315Z,99551.61
2022-12-23T22:01:33.339Z,99554.90
2022-12-23T22:04:06.590Z,99547.28
2022-12-23T22:06:41.398Z,99547.34
2022-12-23T22:09:15.688Z,99535.38
2022-12-23T22:11:49.149Z,99543.31
2022-12-23T22:14:21.905Z,99546.15
2022-12-23T22:16:54.617Z,99545.85
2022-12-23T22:19:27.329Z,99544.01
2022-12-23T22:22:00.877Z,99540.52
2022-12-23T22:24:35.619Z,99539.50
2022-12-23T22:27:06.783Z,99539.66
2022-12-23T22:29:42.358Z,99516.36
2022-12-23T22:32:15.518Z,99533.66
2022-12-23T22:34:47.922Z,99531.20
2022-12-23T22:37:20.691Z,99526.30
2022-12-23T22:39:53.563Z,99509.15
2022-12-23T22:42:25.986Z,99522.39
2022-12-23T22:44:58.559Z,99521.96
2022-12-23T22:47:31.164Z,99525.08
2022-12-23T22:50:03.695Z,99527.05
2022-12-23T22:52:36.393Z,99528.80
2022-12-23T22:55:11.332Z,99527.67
2022-12-23T22:57:43.788Z,99524.88
2022-12-23T23:00:17.730Z,99525.67
2022-12-23T23:02:50.424Z,99524.56
2022-12-23T23:05:23.613Z,99521.42
2022-12-23T23:07:56.009Z,99522.46
2022-12-23T23:10:28.711Z,99520.19
2022-12-23T23:13:01.473Z,99512.89
2022-12-23T23:15:34.736Z,99507.92
2022-12-23T23:18:07.548Z,99504.07
2022-12-23T23:20:40.310Z,99498.19
2022-12-23T23:23:12.910Z,99505.02
2022-12-23T23:25:45.636Z,99506.54
2022-12-23T23:28:18.188Z,99508.86
2022-12-23T23:31:09.735Z,99509.40
2022-12-23T23:33:44.078Z,99510.42
2022-12-23T23:36:16.559Z,99506.15
2022-12-23T23:38:49.148Z,99508.36
2022-12-23T23:41:23.529Z,99506.69
2022-12-23T23:43:54.728Z,99509.94
2022-12-23T23:46:28.001Z,99510.50
2022-12-23T23:49:00.568Z,99507.39
2022-12-23T23:51:33.295Z,99511.13
2022-12-23T23:54:05.898Z,99515.64
2022-12-23T23:56:39.644Z,99518.94
2022-12-23T23:59:12.238Z,99516.91
